Time,TemperatureF,DewpointF,PressureIn,WindDirection,WindDirectionDegrees,WindSpeedMPH,WindSpeedGustMPH,Humidity,HourlyPrecipIn,Conditions,Clouds,dailyrainin,SoftwareType,DateUTC
2013-01-20 00:00:00,31.3,30.5,30.28,SE,144,0.0,3.0,97,0.00,,,0.00,Wunderground v.1.15,2013-01-20 08:00:00,
2013-01-20 00:10:00,30.9,30.1,30.28,SE,144,0.0,3.0,97,0.00,,,0.00,Wunderground v.1.15,2013-01-20 08:10:00,
2013-01-20 00:15:00,30.8,30.0,30.28,SE,144,0.0,3.0,97,0.00,,,0.00,Wunderground v.1.15,2013-01-20 08:15:00,
2013-01-20 00:20:00,30.8,30.0,30.27,SE,144,0.0,3.0,97,0.00,,,0.00,Wunderground v.1.15,2013-01-20 08:20:00,
2013-01-20 00:30:00,31.1,30.3,30.27,SE,144,0.0,3.0,97,0.00,,,0.00,Wunderground v.1.15,2013-01-20 08:30:00,
2013-01-20 00:35:00,31.4,30.6,30.27,SE,144,0.0,3.0,97,0.00,,,0.00,Wunderground v.1.15,2013-01-20 08:35:00,
2013-01-20 00:40:00,31.1,30.3,30.27,SE,144,0.0,3.0,97,0.00,,,0.00,Wunderground v.1.15,2013-01-20 08:40:00,
2013-01-20 00:45:00,31.0,30.2,30.27,SE,144,0.0,3.0,97,0.00,,,0.00,Wunderground v.1.15,2013-01-20 08:45:00,
2013-01-20 00:55:00,30.9,30.1,30.27,SE,144,0.0,3.0,97,0.00,,,0.00,Wunderground v.1.15,2013-01-20 08:55:00,
2013-01-20 01:00:00,30.7,30.0,30.27,SE,144,0.0,3.0,97,0.00,,,0.00,Wunderground v.1.15,2013-01-20 09:00:00,
2013-01-20 01:05:00,31.1,30.3,30.27,SE,144,0.0,3.0,97,0.00,,,0.00,Wunderground v.1.15,2013-01-20 09:05:00,
2013-01-20 01:15:00,30.8,30.0,30.27,SE,144,0.0,3.0,97,0.00,,,0.00,Wunderground v.1.15,2013-01-20 09:15:00,
2013-01-20 01:20:00,30.5,29.8,30.27,SE,144,0.0,3.0,97,0.00,,,0.00,Wunderground v.1.15,2013-01-20 09:20:00,
2013-01-20 01:25:00,30.2,29.5,30.27,SE,145,0.0,3.0,97,0.00,,,0.00,Wunderground v.1.15,2013-01-20 09:25:00,
2013-01-20 01:35:00,30.0,29.3,30.26,SE,145,0.0,3.0,97,0.00,,,0.00,Wunderground v.1.15,2013-01-20 09:35:00,
2013-01-20 01:40:00,30.0,29.3,30.26,SE,145,0.0,3.0,97,0.00,,,0.00,Wunderground v.1.15,2013-01-20 09:40:00,
2013-01-20 01:45:00,29.9,29.2,30.26,SE,145,0.0,3.0,97,0.00,,,0.00,Wunderground v.1.15,2013-01-20 09:45:00,
2013-01-20 01:50:00,29.9,29.2,30.26,SE,145,0.0,3.0,97,0.00,,,0.00,Wunderground v.1.15,2013-01-20 09:50:00,
2013-01-20 02:00:00,30.3,29.6,30.26,SE,144,0.0,3.0,97,0.00,,,0.00,Wunderground v.1.15,2013-01-20 10:00:00,
2013-01-20 02:05:00,30.4,29.7,30.27,SE,144,0.0,3.0,97,0.00,,,0.00,Wunderground v.1.15,2013-01-20 10:05:00,
2013-01-20 02:10:00,30.2,29.5,30.27,SE,144,0.0,3.0,97,0.00,,,0.00,Wunderground v.1.15,2013-01-20 10:10:00,
2013-01-20 02:20:00,29.9,29.2,30.27,SE,144,0.0,3.0,97,0.00,,,0.00,Wunderground v.1.15,2013-01-20 10:20:00,
2013-01-20 02:25:00,30.2,29.5,30.27,SE,145,0.0,3.0,97,0.00,,,0.00,Wunderground v.1.15,2013-01-20 10:25:00,
2013-01-20 02:30:00,31.0,30.5,30.27,SE,144,0.0,3.0,98,0.00,,,0.00,Wunderground v.1.15,2013-01-20 10:30:00,
2013-01-20 02:35:00,31.4,30.6,30.27,SSE,161,1.0,3.0,97,0.00,,,0.00,Wunderground v.1.15,2013-01-20 10:35:00,
2013-01-20 02:45:00,30.7,30.0,30.27,SSE,162,0.0,3.0,97,0.00,,,0.00,Wunderground v.1.15,2013-01-20 10:45:00,
2013-01-20 02:50:00,30.7,30.0,30.27,SSE,162,0.0,3.0,97,0.00,,,0.00,Wunderground v.1.15,2013-01-20 10:50:00,
2013-01-20 03:00:00,30.6,29.9,30.27,SSE,162,0.0,3.0,97,0.00,,,0.00,Wunderground v.1.15,2013-01-20 11:00:00,
2013-01-20 03:05:00,30.8,30.0,30.27,SSE,162,0.0,3.0,97,0.00,,,0.00,Wunderground v.1.15,2013-01-20 11:05:00,
2013-01-20 03:10:00,31.0,30.5,30.27,SSE,162,0.0,3.0,98,0.00,,,0.00,Wunderground v.1.15,2013-01-20 11:10:00,
2013-01-20 03:15:00,31.5,31.0,30.27,SSE,162,0.0,3.0,98,0.00,,,0.00,Wunderground v.1.15,2013-01-20 11:15:00,
2013-01-20 03:25:00,32.6,32.1,30.27,SSE,162,0.0,3.0,98,0.00,,,0.00,Wunderground v.1.15,2013-01-20 11:25:00,
2013-01-20 03:30:00,32.8,32.3,30.26,SSE,162,0.0,3.0,98,0.00,,,0.00,Wunderground v.1.15,2013-01-20 11:30:00,
2013-01-20 03:35:00,33.0,32.5,30.26,SSE,162,0.0,3.0,98,0.00,,,0.00,Wunderground v.1.15,2013-01-20 11:35:00,
2013-01-20 03:40:00,33.1,32.6,30.26,SSE,162,0.0,3.0,98,0.00,,,0.00,Wunderground v.1.15,2013-01-20 11:40:00,
2013-01-20 03:50:00,32.8,32.3,30.27,SSE,162,0.0,3.0,98,0.00,,,0.00,Wunderground v.1.15,2013-01-20 11:50:00,
2013-01-20 03:55:00,32.5,32.0,30.27,SSE,162,0.0,3.0,98,0.00,,,0.00,Wunderground v.1.15,2013-01-20 11:55:00,
2013-01-20 04:00:00,32.4,31.9,30.27,SSE,162,0.0,3.0,98,0.00,,,0.00,Wunderground v.1.15,2013-01-20 12:00:00,
2013-01-20 04:10:00,32.6,32.1,30.26,SSE,162,0.0,3.0,98,0.00,,,0.00,Wunderground v.1.15,2013-01-20 12:10:00,
2013-01-20 04:15:00,32.4,31.9,30.26,SSE,162,0.0,3.0,98,0.00,,,0.00,Wunderground v.1.15,2013-01-20 12:15:00,
2013-01-20 04:20:00,32.3,31.8,30.26,SSE,162,0.0,3.0,98,0.00,,,0.00,Wunderground v.1.15,2013-01-20 12:20:00,
2013-01-20 04:30:00,32.5,32.0,30.26,SSE,162,0.0,3.0,98,0.00,,,0.00,Wunderground v.1.15,2013-01-20 12:30:00,
2013-01-20 04:35:00,32.6,32.1,30.26,SSE,162,0.0,3.0,98,0.00,,,0.00,Wunderground v.1.15,2013-01-20 12:35:00,
2013-01-20 04:40:00,32.8,32.3,30.26,SSE,162,0.0,3.0,98,0.00,,,0.00,Wunderground v.1.15,2013-01-20 12:40:00,
2013-01-20 04:50:00,32.1,31.6,30.25,SSE,162,0.0,3.0,98,0.00,,,0.00,Wunderground v.1.15,2013-01-20 12:50:00,
2013-01-20 04:55:00,31.5,31.0,30.25,SSE,162,0.0,3.0,98,0.00,,,0.00,Wunderground v.1.15,2013-01-20 12:55:00,
2013-01-20 05:00:00,30.9,30.4,30.26,SSE,162,0.0,3.0,98,0.00,,,0.00,Wunderground v.1.15,2013-01-20 13:00:00,
2013-01-20 05:10:00,30.8,30.0,30.25,SSE,162,0.0,3.0,97,0.00,,,0.00,Wunderground v.1.15,2013-01-20 13:10:00,
2013-01-20 05:15:00,30.7,30.0,30.25,SSE,162,0.0,3.0,97,0.00,,,0.00,Wunderground v.1.15,2013-01-20 13:15:00,
2013-01-20 05:20:00,30.6,29.9,30.25,SSE,162,0.0,3.0,97,0.00,,,0.00,Wunderground v.1.15,2013-01-20 13:20:00,
2013-01-20 05:30:00,30.9,30.4,30.25,SSE,161,0.0,3.0,98,0.00,,,0.00,Wunderground v.1.15,2013-01-20 13:30:00,
2013-01-20 05:35:00,31.0,30.5,30.25,SSE,162,0.0,3.0,98,0.00,,,0.00,Wunderground v.1.15,2013-01-20 13:35:00,
2013-01-20 05:40:00,31.0,30.5,30.25,SSE,162,0.0,3.0,98,0.00,,,0.00,Wunderground v.1.15,2013-01-20 13:40:00,
2013-01-20 05:45:00,31.1,30.6,30.25,SSE,162,0.0,3.0,98,0.00,,,0.00,Wunderground v.1.15,2013-01-20 13:45:00,
2013-01-20 05:55:00,31.3,30.8,30.25,SSE,162,0.0,3.0,98,0.00,,,0.00,Wunderground v.1.15,2013-01-20 13:55:00,
2013-01-20 06:00:00,31.4,30.9,30.25,SSE,162,0.0,3.0,98,0.00,,,0.00,Wunderground v.1.15,2013-01-20 14:00:00,
2013-01-20 06:05:00,31.5,31.0,30.25,SSE,162,0.0,3.0,98,0.00,,,0.00,Wunderground v.1.15,2013-01-20 14:05:00,
2013-01-20 06:15:00,31.6,31.1,30.25,SSE,162,0.0,3.0,98,0.00,,,0.00,Wunderground v.1.15,2013-01-20 14:15:00,
2013-01-20 06:20:00,31.6,31.1,30.25,SSE,162,0.0,3.0,98,0.00,,,0.00,Wunderground v.1.15,2013-01-20 14:20:00,
2013-01-20 06:25:00,31.5,31.0,30.25,SSE,162,0.0,3.0,98,0.00,,,0.00,Wunderground v.1.15,2013-01-20 14:25:00,
2013-01-20 06:35:00,31.3,30.8,30.25,SSE,162,0.0,3.0,98,0.00,,,0.00,Wunderground v.1.15,2013-01-20 14:35:00,
2013-01-20 06:40:00,31.2,30.7,30.25,SSE,162,0.0,3.0,98,0.00,,,0.00,Wunderground v.1.15,2013-01-20 14:40:00,
2013-01-20 06:45:00,31.2,30.7,30.25,SSE,162,0.0,3.0,98,0.00,,,0.00,Wunderground v.1.15,2013-01-20 14:45:00,
2013-01-20 06:50:00,31.1,30.6,30.25,SSE,162,0.0,3.0,98,0.00,,,0.00,Wunderground v.1.15,2013-01-20 14:50:00,
2013-01-20 07:00:00,31.9,31.4,30.25,South,173,0.0,3.0,98,0.00,,,0.00,Wunderground v.1.15,2013-01-20 15:00:00,
2013-01-20 07:05:00,32.0,31.5,30.25,South,173,0.0,3.0,98,0.00,,,0.00,Wunderground v.1.15,2013-01-20 15:05:00,
2013-01-20 07:10:00,31.8,31.3,30.25,South,173,0.0,3.0,98,0.00,,,0.00,Wunderground v.1.15,2013-01-20 15:10:00,
2013-01-20 07:20:00,31.7,31.2,30.25,South,173,0.0,3.0,98,0.00,,,0.00,Wunderground v.1.15,2013-01-20 15:20:00,
2013-01-20 07:25:00,31.7,31.2,30.25,South,173,0.0,3.0,98,0.00,,,0.00,Wunderground v.1.15,2013-01-20 15:25:00,
2013-01-20 07:30:00,31.6,31.1,30.25,South,173,0.0,3.0,98,0.00,,,0.00,Wunderground v.1.15,2013-01-20 15:30:00,
2013-01-20 07:35:00,31.6,31.1,30.25,South,173,0.0,3.0,98,0.00,,,0.00,Wunderground v.1.15,2013-01-20 15:35:00,
2013-01-20 07:45:00,31.6,31.1,30.25,South,173,0.0,3.0,98,0.00,,,0.00,Wunderground v.1.15,2013-01-20 15:45:00,
2013-01-20 07:50:00,31.6,31.1,30.26,South,173,0.0,3.0,98,0.00,,,0.00,Wunderground v.1.15,2013-01-20 15:50:00,
2013-01-20 08:00:00,32.1,31.6,30.26,South,173,0.0,3.0,98,0.00,,,0.00,Wunderground v.1.15,2013-01-20 16:00:00,
2013-01-20 08:05:00,31.9,31.4,30.26,South,173,0.0,3.0,98,0.00,,,0.00,Wunderground v.1.15,2013-01-20 16:05:00,
2013-01-20 08:10:00,31.7,31.2,30.26,South,173,0.0,3.0,98,0.00,,,0.00,Wunderground v.1.15,2013-01-20 16:10:00,
2013-01-20 08:15:00,31.7,31.2,30.26,South,173,0.0,3.0,98,0.00,,,0.00,Wunderground v.1.15,2013-01-20 16:15:00,
2013-01-20 08:25:00,31.8,31.3,30.26,South,173,0.0,3.0,98,0.00,,,0.00,Wunderground v.1.15,2013-01-20 16:25:00,
2013-01-20 08:30:00,32.0,31.5,30.26,South,173,0.0,3.0,98,0.00,,,0.00,Wunderground v.1.15,2013-01-20 16:30:00,
2013-01-20 08:35:00,32.3,31.8,30.26,South,173,0.0,3.0,98,0.00,,,0.00,Wunderground v.1.15,2013-01-20 16:35:00,
2013-01-20 08:45:00,32.8,32.3,30.26,South,173,0.0,3.0,98,0.00,,,0.00,Wunderground v.1.15,2013-01-20 16:45:00,
2013-01-20 08:50:00,33.6,33.1,30.26,South,173,0.0,3.0,98,0.00,,,0.00,Wunderground v.1.15,2013-01-20 16:50:00,
2013-01-20 08:55:00,33.8,33.3,30.26,South,173,0.0,3.0,98,0.00,,,0.00,Wunderground v.1.15,2013-01-20 16:55:00,
2013-01-20 09:05:00,34.2,33.7,30.26,South,173,0.0,3.0,98,0.00,,,0.00,Wunderground v.1.15,2013-01-20 17:05:00,
2013-01-20 09:10:00,33.9,33.4,30.26,NE,50,0.0,3.0,98,0.00,,,0.00,Wunderground v.1.15,2013-01-20 17:10:00,
2013-01-20 09:15:00,33.2,32.7,30.26,NE,51,0.0,3.0,98,0.00,,,0.01,Wunderground v.1.15,2013-01-20 17:15:00,
2013-01-20 09:20:00,33.5,33.0,30.27,ESE,121,0.0,3.0,98,0.00,,,0.01,Wunderground v.1.15,2013-01-20 17:20:00,
2013-01-20 09:30:00,35.8,35.3,30.27,SE,135,1.0,1.0,98,0.00,,,0.01,Wunderground v.1.15,2013-01-20 17:30:00,
2013-01-20 09:35:00,36.6,36.1,30.27,SE,136,0.0,3.0,98,0.00,,,0.01,Wunderground v.1.15,2013-01-20 17:35:00,
2013-01-20 09:45:00,36.8,36.3,30.27,SE,135,0.0,3.0,98,0.00,,,0.01,Wunderground v.1.15,2013-01-20 17:45:00,
2013-01-20 09:50:00,36.2,35.7,30.27,SE,136,0.0,3.0,98,0.00,,,0.01,Wunderground v.1.15,2013-01-20 17:50:00,
2013-01-20 09:55:00,35.9,35.4,30.27,SE,135,0.0,3.0,98,0.00,,,0.01,Wunderground v.1.15,2013-01-20 17:55:00,
2013-01-20 10:00:00,35.8,35.3,30.27,SE,135,0.0,3.0,98,0.00,,,0.01,Wunderground v.1.15,2013-01-20 18:00:00,
2013-01-20 10:10:00,35.3,34.8,30.27,NE,54,1.0,1.0,98,0.00,,,0.01,Wunderground v.1.15,2013-01-20 18:10:00,
2013-01-20 10:15:00,35.2,34.7,30.27,NE,53,1.0,3.0,98,0.00,,,0.01,Wunderground v.1.15,2013-01-20 18:15:00,
2013-01-20 10:20:00,35.4,34.9,30.27,NE,53,0.0,3.0,98,0.00,,,0.01,Wunderground v.1.15,2013-01-20 18:20:00,
2013-01-20 10:30:00,36.1,35.6,30.28,NE,53,0.0,3.0,98,0.00,,,0.01,Wunderground v.1.15,2013-01-20 18:30:00,
2013-01-20 10:35:00,36.5,36.0,30.28,NE,54,0.0,3.0,98,0.00,,,0.01,Wunderground v.1.15,2013-01-20 18:35:00,
2013-01-20 10:40:00,36.9,36.4,30.28,NE,53,0.0,3.0,98,0.00,,,0.01,Wunderground v.1.15,2013-01-20 18:40:00,
2013-01-20 10:50:00,38.0,37.5,30.27,East,93,0.0,3.0,98,0.00,,,0.01,Wunderground v.1.15,2013-01-20 18:50:00,
2013-01-20 10:55:00,38.4,37.9,30.27,East,93,1.0,3.0,98,0.00,,,0.01,Wunderground v.1.15,2013-01-20 18:55:00,
2013-01-20 11:00:00,38.6,38.1,30.27,East,93,0.0,3.0,98,0.00,,,0.01,Wunderground v.1.15,2013-01-20 19:00:00,
2013-01-20 11:05:00,38.9,38.4,30.27,East,93,0.0,3.0,98,0.00,,,0.01,Wunderground v.1.15,2013-01-20 19:05:00,
2013-01-20 11:15:00,39.4,38.9,30.26,ENE,58,0.0,3.0,98,0.00,,,0.01,Wunderground v.1.15,2013-01-20 19:15:00,
2013-01-20 11:20:00,39.4,38.9,30.26,NE,43,1.0,1.0,98,0.00,,,0.01,Wunderground v.1.15,2013-01-20 19:20:00,
2013-01-20 11:25:00,39.5,38.7,30.26,NE,43,1.0,3.0,97,0.00,,,0.01,Wunderground v.1.15,2013-01-20 19:25:00,
2013-01-20 11:35:00,39.9,39.1,30.25,NE,43,0.0,3.0,97,0.00,,,0.01,Wunderground v.1.15,2013-01-20 19:35:00,
2013-01-20 11:40:00,40.1,39.3,30.25,NE,43,0.0,3.0,97,0.00,,,0.01,Wunderground v.1.15,2013-01-20 19:40:00,
2013-01-20 11:45:00,40.5,39.7,30.25,NE,43,0.0,3.0,97,0.00,,,0.01,Wunderground v.1.15,2013-01-20 19:45:00,
2013-01-20 11:50:00,41.0,40.2,30.25,NE,43,0.0,3.0,97,0.00,,,0.01,Wunderground v.1.15,2013-01-20 19:50:00,
2013-01-20 12:00:00,43.1,42.3,30.25,South,180,0.0,0.0,97,0.00,,,0.01,Wunderground v.1.15,2013-01-20 20:00:00,
2013-01-20 12:10:00,44.5,42.6,30.24,ENE,59,0.0,0.0,93,0.00,,,0.01,Wunderground v.1.15,2013-01-20 20:10:00,
2013-01-20 12:15:00,44.9,42.7,30.24,ENE,59,0.0,0.0,92,0.00,,,0.01,Wunderground v.1.15,2013-01-20 20:15:00,
2013-01-20 12:20:00,45.4,42.9,30.24,ENE,59,0.0,0.0,91,0.00,,,0.01,Wunderground v.1.15,2013-01-20 20:20:00,
2013-01-20 12:30:00,46.1,43.3,30.23,ENE,59,0.0,0.0,90,0.00,,,0.01,Wunderground v.1.15,2013-01-20 20:30:00,
2013-01-20 12:35:00,46.3,43.5,30.23,ENE,59,0.0,0.0,90,0.00,,,0.01,Wunderground v.1.15,2013-01-20 20:35:00,
2013-01-20 12:40:00,46.5,43.4,30.23,ENE,59,0.0,0.0,89,0.00,,,0.01,Wunderground v.1.15,2013-01-20 20:40:00,
2013-01-20 12:50:00,46.7,43.3,30.23,ENE,59,0.0,0.0,88,0.00,,,0.01,Wunderground v.1.15,2013-01-20 20:50:00,
2013-01-20 12:55:00,46.8,43.4,30.22,ENE,59,0.0,0.0,88,0.00,,,0.01,Wunderground v.1.15,2013-01-20 20:55:00,
2013-01-20 13:05:00,47.3,43.3,30.22,NE,39,1.0,2.0,86,0.00,,,0.01,Wunderground v.1.15,2013-01-20 21:05:00,
2013-01-20 13:10:00,47.5,43.5,30.22,NNE,31,1.0,2.0,86,0.00,,,0.01,Wunderground v.1.15,2013-01-20 21:10:00,
2013-01-20 13:15:00,47.9,43.3,30.22,NE,45,1.0,2.0,84,0.00,,,0.01,Wunderground v.1.15,2013-01-20 21:15:00,
2013-01-20 13:25:00,48.4,43.5,30.22,NE,35,1.0,3.0,83,0.00,,,0.01,Wunderground v.1.15,2013-01-20 21:25:00,
2013-01-20 13:30:00,48.5,43.3,30.21,NE,39,1.0,1.0,82,0.00,,,0.01,Wunderground v.1.15,2013-01-20 21:30:00,
2013-01-20 13:35:00,48.8,43.2,30.21,NE,39,1.0,2.0,81,0.00,,,0.01,Wunderground v.1.15,2013-01-20 21:35:00,
2013-01-20 13:40:00,49.2,43.6,30.21,NE,39,0.0,2.0,81,0.00,,,0.01,Wunderground v.1.15,2013-01-20 21:40:00,
2013-01-20 13:50:00,50.0,44.1,30.21,NE,39,0.0,2.0,80,0.00,,,0.01,Wunderground v.1.15,2013-01-20 21:50:00,
2013-01-20 13:55:00,50.4,44.1,30.21,NE,39,0.0,2.0,79,0.00,,,0.01,Wunderground v.1.15,2013-01-20 21:55:00,
2013-01-20 14:00:00,51.0,44.4,30.21,NE,39,0.0,2.0,78,0.00,,,0.01,Wunderground v.1.15,2013-01-20 22:00:00,
2013-01-20 14:10:00,52.1,44.4,30.20,NE,39,0.0,2.0,75,0.00,,,0.01,Wunderground v.1.15,2013-01-20 22:10:00,
2013-01-20 14:15:00,52.4,44.7,30.20,NE,39,0.0,2.0,75,0.00,,,0.01,Wunderground v.1.15,2013-01-20 22:15:00,
2013-01-20 14:20:00,52.4,44.4,30.20,NE,39,0.0,2.0,74,0.00,,,0.01,Wunderground v.1.15,2013-01-20 22:20:00,
2013-01-20 14:30:00,52.3,44.6,30.20,NE,39,0.0,2.0,75,0.00,,,0.01,Wunderground v.1.15,2013-01-20 22:30:00,
2013-01-20 14:35:00,52.1,44.1,30.20,NE,39,0.0,2.0,74,0.00,,,0.01,Wunderground v.1.15,2013-01-20 22:35:00,
2013-01-20 14:40:00,51.9,43.9,30.20,NE,39,0.0,2.0,74,0.00,,,0.01,Wunderground v.1.15,2013-01-20 22:40:00,
2013-01-20 14:45:00,51.8,43.4,30.20,NE,39,0.0,2.0,73,0.00,,,0.01,Wunderground v.1.15,2013-01-20 22:45:00,
2013-01-20 14:55:00,51.5,42.8,30.20,NE,39,0.0,2.0,72,0.00,,,0.01,Wunderground v.1.15,2013-01-20 22:55:00,
2013-01-20 15:00:00,51.5,42.4,30.20,NE,39,0.0,2.0,71,0.00,,,0.01,Wunderground v.1.15,2013-01-20 23:00:00,
2013-01-20 15:05:00,51.4,41.9,30.19,NE,39,0.0,2.0,70,0.00,,,0.01,Wunderground v.1.15,2013-01-20 23:05:00,
2013-01-20 15:15:00,51.3,40.7,30.19,NE,39,0.0,2.0,67,0.00,,,0.01,Wunderground v.1.15,2013-01-20 23:15:00,
2013-01-20 15:20:00,51.3,40.3,30.19,NE,39,0.0,2.0,66,0.00,,,0.01,Wunderground v.1.15,2013-01-20 23:20:00,
2013-01-20 15:25:00,51.2,39.8,30.18,NE,39,0.0,2.0,65,0.00,,,0.01,Wunderground v.1.15,2013-01-20 23:25:00,
2013-01-20 15:35:00,51.1,39.7,30.18,NE,39,0.0,2.0,65,0.00,,,0.01,Wunderground v.1.15,2013-01-20 23:35:00,
2013-01-20 15:40:00,51.0,40.4,30.18,NE,39,0.0,2.0,67,0.00,,,0.01,Wunderground v.1.15,2013-01-20 23:40:00,
2013-01-20 15:45:00,50.9,39.5,30.18,NE,39,0.0,2.0,65,0.00,,,0.01,Wunderground v.1.15,2013-01-20 23:45:00,
2013-01-20 15:55:00,50.8,38.2,30.18,NE,39,0.0,2.0,62,0.00,,,0.01,Wunderground v.1.15,2013-01-20 23:55:00,
2013-01-20 16:00:00,50.8,37.8,30.18,NE,39,0.0,2.0,61,0.00,,,0.01,Wunderground v.1.15,2013-01-21 00:00:00,
2013-01-20 16:05:00,50.8,37.8,30.17,NE,39,0.0,2.0,61,0.00,,,0.01,Wunderground v.1.15,2013-01-21 00:05:00,
2013-01-20 16:15:00,50.7,36.9,30.17,NE,39,0.0,2.0,59,0.00,,,0.01,Wunderground v.1.15,2013-01-21 00:15:00,
2013-01-20 16:20:00,50.6,37.6,30.17,NE,39,0.0,2.0,61,0.00,,,0.01,Wunderground v.1.15,2013-01-21 00:20:00,
2013-01-20 16:25:00,50.5,38.0,30.17,NE,39,0.0,2.0,62,0.00,,,0.01,Wunderground v.1.15,2013-01-21 00:25:00,
2013-01-20 16:35:00,50.5,39.6,30.17,NE,39,0.0,2.0,66,0.00,,,0.01,Wunderground v.1.15,2013-01-21 00:35:00,
2013-01-20 16:40:00,50.4,40.6,30.17,NE,39,0.0,2.0,69,0.00,,,0.01,Wunderground v.1.15,2013-01-21 00:40:00,
2013-01-20 16:45:00,50.3,40.9,30.17,NE,39,0.0,2.0,70,0.00,,,0.01,Wunderground v.1.15,2013-01-21 00:45:00,
2013-01-20 16:50:00,50.3,41.3,30.17,NE,39,0.0,2.0,71,0.00,,,0.01,Wunderground v.1.15,2013-01-21 00:50:00,
2013-01-20 17:00:00,49.8,40.4,30.18,NE,39,0.0,2.0,70,0.00,,,0.01,Wunderground v.1.15,2013-01-21 01:00:00,
2013-01-20 17:05:00,49.6,40.6,30.18,NE,39,0.0,2.0,71,0.00,,,0.01,Wunderground v.1.15,2013-01-21 01:05:00,
2013-01-20 17:10:00,49.4,40.4,30.18,NE,39,0.0,2.0,71,0.00,,,0.01,Wunderground v.1.15,2013-01-21 01:10:00,
2013-01-20 17:15:00,49.2,40.9,30.18,NE,39,0.0,2.0,73,0.00,,,0.01,Wunderground v.1.15,2013-01-21 01:15:00,
2013-01-20 17:25:00,48.8,41.2,30.18,NE,39,0.0,2.0,75,0.00,,,0.01,Wunderground v.1.15,2013-01-21 01:25:00,
2013-01-20 17:30:00,48.7,41.1,30.18,NE,39,0.0,2.0,75,0.00,,,0.01,Wunderground v.1.15,2013-01-21 01:30:00,
2013-01-20 17:35:00,48.5,40.2,30.19,NE,39,0.0,2.0,73,0.00,,,0.01,Wunderground v.1.15,2013-01-21 01:35:00,
2013-01-20 17:45:00,48.1,40.5,30.19,NE,39,0.0,2.0,75,0.00,,,0.01,Wunderground v.1.15,2013-01-21 01:45:00,
2013-01-20 17:50:00,47.8,40.6,30.19,NE,39,0.0,2.0,76,0.00,,,0.01,Wunderground v.1.15,2013-01-21 01:50:00,
2013-01-20 17:55:00,47.5,40.6,30.19,ESE,111,0.0,2.0,77,0.00,,,0.01,Wunderground v.1.15,2013-01-21 01:55:00,
2013-01-20 18:05:00,47.0,40.5,30.19,ESE,111,0.0,2.0,78,0.00,,,0.01,Wunderground v.1.15,2013-01-21 02:05:00,
2013-01-20 18:10:00,46.7,40.5,30.19,SE,131,0.0,2.0,79,0.00,,,0.01,Wunderground v.1.15,2013-01-21 02:10:00,
2013-01-20 18:20:00,46.1,40.6,30.20,SE,131,0.0,2.0,81,0.00,,,0.01,Wunderground v.1.15,2013-01-21 02:20:00,
2013-01-20 18:25:00,45.8,40.6,30.20,SE,131,0.0,2.0,82,0.00,,,0.01,Wunderground v.1.15,2013-01-21 02:25:00,
2013-01-20 18:30:00,45.4,40.5,30.20,SE,131,0.0,2.0,83,0.00,,,0.01,Wunderground v.1.15,2013-01-21 02:30:00,
2013-01-20 18:35:00,45.1,40.6,30.20,SE,131,0.0,2.0,84,0.00,,,0.01,Wunderground v.1.15,2013-01-21 02:35:00,
2013-01-20 18:45:00,44.8,40.6,30.20,SE,131,0.0,2.0,85,0.00,,,0.01,Wunderground v.1.15,2013-01-21 02:45:00,
2013-01-20 18:50:00,44.6,40.4,30.20,SE,131,0.0,2.0,85,0.00,,,0.01,Wunderground v.1.15,2013-01-21 02:50:00,
2013-01-20 18:55:00,44.4,40.2,30.20,SE,131,0.0,2.0,85,0.00,,,0.01,Wunderground v.1.15,2013-01-21 02:55:00,
2013-01-20 19:05:00,44.2,39.4,30.20,SE,131,0.0,2.0,83,0.00,,,0.01,Wunderground v.1.15,2013-01-21 03:05:00,
2013-01-20 19:10:00,44.2,39.4,30.20,SE,131,0.0,2.0,83,0.00,,,0.01,Wunderground v.1.15,2013-01-21 03:10:00,
2013-01-20 19:15:00,44.3,39.5,30.20,South,179,0.0,2.0,83,0.00,,,0.01,Wunderground v.1.15,2013-01-21 03:15:00,
2013-01-20 19:20:00,44.1,39.3,30.20,South,178,1.0,1.0,83,0.00,,,0.01,Wunderground v.1.15,2013-01-21 03:20:00,
2013-01-20 19:30:00,43.4,39.2,30.20,South,178,0.0,2.0,85,0.00,,,0.01,Wunderground v.1.15,2013-01-21 03:30:00,
2013-01-20 19:35:00,43.0,39.1,30.20,South,178,0.0,2.0,86,0.00,,,0.01,Wunderground v.1.15,2013-01-21 03:35:00,
2013-01-20 19:40:00,42.7,39.1,30.20,South,178,0.0,2.0,87,0.00,,,0.01,Wunderground v.1.15,2013-01-21 03:40:00,
2013-01-20 19:50:00,42.3,39.0,30.20,South,178,0.0,2.0,88,0.00,,,0.01,Wunderground v.1.15,2013-01-21 03:50:00,
2013-01-20 19:55:00,42.3,39.3,30.20,South,178,0.0,2.0,89,0.00,,,0.01,Wunderground v.1.15,2013-01-21 03:55:00,
2013-01-20 20:00:00,42.3,39.3,30.20,South,178,0.0,2.0,89,0.00,,,0.01,Wunderground v.1.15,2013-01-21 04:00:00,
2013-01-20 20:10:00,42.5,39.2,30.20,South,178,0.0,2.0,88,0.00,,,0.01,Wunderground v.1.15,2013-01-21 04:10:00,
2013-01-20 20:15:00,42.6,39.0,30.20,South,178,0.0,2.0,87,0.00,,,0.01,Wunderground v.1.15,2013-01-21 04:15:00,
2013-01-20 20:20:00,42.7,39.1,30.20,South,178,0.0,2.0,87,0.00,,,0.01,Wunderground v.1.15,2013-01-21 04:20:00,
2013-01-20 20:25:00,42.7,39.1,30.20,South,178,0.0,2.0,87,0.00,,,0.01,Wunderground v.1.15,2013-01-21 04:25:00,
2013-01-20 20:35:00,42.7,39.1,30.20,South,178,0.0,2.0,87,0.00,,,0.01,Wunderground v.1.15,2013-01-21 04:35:00,
2013-01-20 20:40:00,43.0,39.1,30.20,South,191,0.0,2.0,86,0.00,,,0.01,Wunderground v.1.15,2013-01-21 04:40:00,
2013-01-20 20:50:00,43.8,39.0,30.20,South,191,0.0,2.0,83,0.00,,,0.01,Wunderground v.1.15,2013-01-21 04:50:00,
2013-01-20 20:55:00,44.3,38.8,30.20,South,191,0.0,2.0,81,0.00,,,0.01,Wunderground v.1.15,2013-01-21 04:55:00,
2013-01-20 21:00:00,44.7,38.9,30.20,South,191,1.0,1.0,80,0.00,,,0.01,Wunderground v.1.15,2013-01-21 05:00:00,
2013-01-20 21:05:00,44.6,38.8,30.20,South,191,0.0,2.0,80,0.00,,,0.01,Wunderground v.1.15,2013-01-21 05:05:00,
2013-01-20 21:10:00,44.4,38.3,30.20,South,191,0.0,2.0,79,0.00,,,0.01,Wunderground v.1.15,2013-01-21 05:10:00,
2013-01-20 21:15:00,44.3,38.2,30.20,South,191,0.0,2.0,79,0.00,,,0.01,Wunderground v.1.15,2013-01-21 05:15:00,
2013-01-20 21:20:00,44.3,38.2,30.20,South,191,0.0,2.0,79,0.00,,,0.01,Wunderground v.1.15,2013-01-21 05:20:00,
2013-01-20 21:30:00,43.9,38.1,30.20,South,191,0.0,2.0,80,0.00,,,0.01,Wunderground v.1.15,2013-01-21 05:30:00,
2013-01-20 21:35:00,43.5,38.1,30.20,South,191,0.0,2.0,81,0.00,,,0.01,Wunderground v.1.15,2013-01-21 05:35:00,
2013-01-20 21:40:00,43.1,37.7,30.20,South,191,0.0,2.0,81,0.00,,,0.01,Wunderground v.1.15,2013-01-21 05:40:00,
2013-01-20 21:45:00,42.6,37.5,30.20,South,191,0.0,2.0,82,0.00,,,0.01,Wunderground v.1.15,2013-01-21 05:45:00,
2013-01-20 21:55:00,42.2,37.4,30.20,South,191,0.0,2.0,83,0.00,,,0.01,Wunderground v.1.15,2013-01-21 05:55:00,
2013-01-20 22:00:00,42.0,36.9,30.20,South,191,0.0,2.0,82,0.00,,,0.01,Wunderground v.1.15,2013-01-21 06:00:00,
2013-01-20 22:05:00,41.7,36.6,30.20,South,191,0.0,2.0,82,0.00,,,0.01,Wunderground v.1.15,2013-01-21 06:05:00,
2013-01-20 22:10:00,41.5,36.4,30.20,South,191,0.0,2.0,82,0.00,,,0.01,Wunderground v.1.15,2013-01-21 06:10:00,
2013-01-20 22:20:00,41.2,35.8,30.20,SSW,199,0.0,2.0,81,0.00,,,0.01,Wunderground v.1.15,2013-01-21 06:20:00,
2013-01-20 22:25:00,41.4,36.0,30.20,SSW,199,0.0,2.0,81,0.00,,,0.01,Wunderground v.1.15,2013-01-21 06:25:00,
2013-01-20 22:30:00,41.6,35.6,30.20,SSW,199,0.0,2.0,79,0.00,,,0.01,Wunderground v.1.15,2013-01-21 06:30:00,
2013-01-20 22:40:00,42.3,35.3,30.21,South,178,0.0,2.0,76,0.00,,,0.01,Wunderground v.1.15,2013-01-21 06:40:00,
2013-01-20 22:45:00,42.3,35.6,30.21,SSE,160,0.0,2.0,77,0.00,,,0.01,Wunderground v.1.15,2013-01-21 06:45:00,
2013-01-20 22:50:00,41.5,36.7,30.21,SSE,152,1.0,2.0,83,0.00,,,0.01,Wunderground v.1.15,2013-01-21 06:50:00,
2013-01-20 23:00:00,40.0,36.2,30.21,SSE,152,0.0,2.0,86,0.00,,,0.01,Wunderground v.1.15,2013-01-21 07:00:00,
2013-01-20 23:10:00,39.5,36.5,30.21,SSE,152,0.0,2.0,89,0.00,,,0.01,Wunderground v.1.15,2013-01-21 07:10:00,
2013-01-20 23:15:00,39.3,36.3,30.20,SSE,152,0.0,2.0,89,0.00,,,0.01,Wunderground v.1.15,2013-01-21 07:15:00,
2013-01-20 23:20:00,38.9,35.9,30.21,SSE,152,0.0,2.0,89,0.00,,,0.01,Wunderground v.1.15,2013-01-21 07:20:00,
2013-01-20 23:30:00,38.8,34.7,30.21,SSE,152,0.0,2.0,85,0.00,,,0.01,Wunderground v.1.15,2013-01-21 07:30:00,
2013-01-20 23:35:00,39.1,34.4,30.21,SSE,152,0.0,2.0,83,0.00,,,0.01,Wunderground v.1.15,2013-01-21 07:35:00,
2013-01-20 23:40:00,39.9,34.5,30.21,South,184,0.0,2.0,81,0.00,,,0.01,Wunderground v.1.15,2013-01-21 07:40:00,
2013-01-20 23:50:00,40.4,34.7,30.21,South,184,0.0,2.0,80,0.00,,,0.01,Wunderground v.1.15,2013-01-21 07:50:00,